Time;durP1;ratioP1;P1;durP2;ratioP2;P2;SDS_P1;SDS_P2;PMS_P1;PMS_P2;Temp;Humidity;BMP_temperature;BMP_pressure;BME280_temperature;BME280_humidity;BME280_pressure;Samples;Min_cycle;Max_cycle;Signal;HPM_P1;HPM_P2
2022/11/26 00:01:41;;;;;;;37.57;15.97;;;4.70;99.90;;;;;;5013349;28;20229;-63
2022/11/26 00:04:09;;;;;;;48.47;19.73;;;4.80;99.90;;;;;;5031409;28;20281;-63
2022/11/26 00:06:38;;;;;;;39.30;17.33;;;4.80;99.90;;;;;;5033013;28;20190;-63
2022/11/26 00:09:11;;;;;;;39.53;16.70;;;4.80;99.90;;;;;;5031616;28;20195;-64
2022/11/26 00:11:39;;;;;;;47.47;19.93;;;4.80;99.90;;;;;;5031495;28;20206;-63
2022/11/26 00:14:12;;;;;;;50.13;20.63;;;4.80;99.90;;;;;;5030734;28;20658;-63
2022/11/26 00:16:39;;;;;;;42.30;19.10;;;4.80;99.90;;;;;;5030257;28;20298;-63
2022/11/26 00:19:07;;;;;;;65.73;25.53;;;4.80;99.90;;;;;;5030833;28;20297;-63
2022/11/26 00:21:37;;;;;;;52.83;21.47;;;4.80;99.90;;;;;;5029719;28;20253;-63
2022/11/26 00:24:06;;;;;;;54.87;20.87;;;4.80;99.90;;;;;;5031174;28;20296;-62
2022/11/26 00:26:34;;;;;;;57.50;22.50;;;4.90;99.90;;;;;;5031228;28;20203;-62
2022/11/26 00:29:01;;;;;;;65.37;24.77;;;4.80;99.90;;;;;;5030263;28;20218;-63
2022/11/26 00:31:28;;;;;;;73.20;27.90;;;4.90;99.90;;;;;;5023923;28;20243;-63
2022/11/26 00:33:55;;;;;;;71.07;27.70;;;4.80;99.90;;;;;;5019552;28;20640;-63
2022/11/26 00:36:27;;;;;;;58.93;23.80;;;4.80;99.90;;;;;;5011114;28;20203;-63
2022/11/26 00:38:56;;;;;;;65.00;24.23;;;4.70;99.90;;;;;;5010956;28;20275;-63
2022/11/26 00:41:29;;;;;;;78.37;27.83;;;4.80;99.90;;;;;;5009962;28;20198;-62
2022/11/26 00:43:56;;;;;;;62.83;24.83;;;4.70;99.90;;;;;;5008464;28;20220;-62
2022/11/26 00:46:24;;;;;;;62.07;23.87;;;4.70;99.90;;;;;;5018580;28;20193;-62
2022/11/26 00:48:51;;;;;;;52.27;20.60;;;4.80;99.90;;;;;;5015327;28;20220;-62
2022/11/26 00:51:20;;;;;;;50.73;21.20;;;4.70;99.90;;;;;;5009892;28;20207;-62
2022/11/26 00:53:49;;;;;;;42.93;17.73;;;4.70;99.90;;;;;;5013526;28;20270;-63
2022/11/26 00:56:18;;;;;;;43.97;17.37;;;4.80;99.90;;;;;;5011452;28;20217;-63
2022/11/26 00:58:46;;;;;;;36.03;15.63;;;4.80;99.90;;;;;;5007025;28;20372;-63
2022/11/26 01:01:17;;;;;;;37.80;15.50;;;4.80;99.90;;;;;;5007510;28;20206;-62
2022/11/26 01:03:45;;;;;;;36.07;14.90;;;4.80;99.90;;;;;;5009920;28;20195;-63
2022/11/26 01:06:15;;;;;;;39.33;15.83;;;4.90;99.90;;;;;;5010359;28;20290;-63
2022/11/26 01:08:43;;;;;;;52.17;19.73;;;4.90;99.90;;;;;;5005185;28;20199;-63
2022/11/26 01:11:15;;;;;;;48.13;18.63;;;4.90;99.90;;;;;;5007942;28;20654;-62
2022/11/26 01:13:43;;;;;;;50.97;21.77;;;4.80;99.90;;;;;;5010118;28;20187;-63
2022/11/26 01:16:18;;;;;;;56.00;21.27;;;4.90;99.90;;;;;;5007073;28;20205;-62
2022/11/26 01:18:46;;;;;;;42.30;18.17;;;4.90;99.90;;;;;;5008283;28;20221;-64
2022/11/26 01:21:13;;;;;;;45.83;19.27;;;4.90;99.90;;;;;;5023285;28;20206;-63
2022/11/26 01:23:40;;;;;;;57.27;22.20;;;4.90;99.90;;;;;;5010042;28;20600;-63
2022/11/26 01:26:10;;;;;;;58.57;22.63;;;4.90;99.90;;;;;;5009165;28;20290;-63
2022/11/26 01:28:39;;;;;;;65.53;24.10;;;4.90;99.90;;;;;;5008237;28;20199;-63
2022/11/26 01:31:08;;;;;;;57.80;22.97;;;4.90;99.90;;;;;;5018306;28;20226;-63
2022/11/26 01:33:35;;;;;;;51.83;20.80;;;4.90;99.90;;;;;;5029111;28;20229;-63
2022/11/26 01:36:02;;;;;;;45.10;17.47;;;4.90;99.90;;;;;;5030292;28;20199;-63
2022/11/26 01:38:29;;;;;;;52.37;17.93;;;4.90;99.90;;;;;;5027253;28;20224;-63
2022/11/26 01:41:15;;;;;;;54.87;19.80;;;4.90;99.90;;;;;;5011566;28;20291;-63
2022/11/26 01:43:43;;;;;;;52.57;19.90;;;4.90;99.90;;;;;;5028586;28;20219;-63
2022/11/26 01:46:15;;;;;;;37.00;16.07;;;4.90;99.90;;;;;;5028003;28;20346;-62
2022/11/26 01:48:42;;;;;;;33.47;14.67;;;4.90;99.90;;;;;;5027243;28;20229;-62
2022/11/26 01:51:10;;;;;;;32.47;13.00;;;4.90;99.90;;;;;;5026257;28;20609;-63
2022/11/26 01:53:47;;;;;;;43.53;16.50;;;5.00;99.90;;;;;;5027799;28;20241;-63
2022/11/26 01:56:31;;;;;;;41.17;15.47;;;5.00;99.90;;;;;;5027371;28;20667;-62
2022/11/26 01:59:04;;;;;;;34.33;13.63;;;5.00;99.90;;;;;;5025908;28;20203;-63
2022/11/26 02:01:33;;;;;;;33.33;13.30;;;5.00;99.90;;;;;;5023821;28;20250;-63
2022/11/26 02:04:09;;;;;;;35.33;13.47;;;5.10;99.90;;;;;;5028540;28;20196;-63
2022/11/26 02:06:36;;;;;;;38.57;14.30;;;5.10;99.90;;;;;;5028542;28;20249;-63
2022/11/26 02:09:06;;;;;;;31.53;12.80;;;5.10;99.90;;;;;;5027683;28;20255;-62
2022/11/26 02:11:33;;;;;;;54.43;20.53;;;5.10;99.90;;;;;;5028865;28;20218;-62
2022/11/26 02:14:05;;;;;;;58.83;22.50;;;5.10;99.90;;;;;;5027191;28;20651;-63
2022/11/26 02:16:58;;;;;;;55.57;21.10;;;5.10;99.90;;;;;;5026901;28;20676;-63
2022/11/26 02:20:13;;;;;;;50.07;19.00;;;5.10;99.90;;;;;;5026989;28;20397;-63
2022/11/26 02:23:08;;;;;;;39.57;17.30;;;5.10;99.90;;;;;;4992455;28;20642;-63
2022/11/26 02:26:14;;;;;;;35.33;13.50;;;5.10;99.90;;;;;;4993653;28;20678;-63
2022/11/26 02:29:07;;;;;;;32.87;13.60;;;5.00;99.90;;;;;;4985647;28;20702;-62
2022/11/26 02:31:44;;;;;;;59.60;20.37;;;5.00;99.90;;;;;;5024538;28;20235;-63
2022/11/26 02:34:18;;;;;;;65.70;24.03;;;5.10;99.90;;;;;;5027192;28;20269;-63
2022/11/26 02:36:51;;;;;;;58.70;22.47;;;5.00;99.90;;;;;;5028882;28;20558;-63
2022/11/26 02:39:20;;;;;;;69.27;25.17;;;5.00;99.90;;;;;;5025310;28;20219;-62
2022/11/26 02:41:50;;;;;;;71.10;24.40;;;5.00;99.90;;;;;;5027765;28;20199;-62
2022/11/26 02:44:21;;;;;;;60.67;22.47;;;4.90;99.90;;;;;;5025561;28;21037;-62
2022/11/26 02:46:54;;;;;;;71.23;24.53;;;4.80;99.90;;;;;;5026489;28;20194;-62
2022/11/26 02:49:22;;;;;;;83.33;26.77;;;4.90;99.90;;;;;;5026767;28;20195;-63
2022/11/26 02:51:54;;;;;;;67.97;24.33;;;4.80;99.90;;;;;;5024257;28;20289;-63
2022/11/26 02:54:23;;;;;;;71.83;25.70;;;4.80;99.90;;;;;;5024118;28;20195;-63
2022/11/26 02:56:51;;;;;;;62.87;23.23;;;4.80;99.90;;;;;;5028128;28;20285;-63
2022/11/26 02:59:19;;;;;;;48.33;19.37;;;4.80;99.90;;;;;;5026311;28;20218;-63
2022/11/26 03:01:52;;;;;;;41.37;16.63;;;4.80;99.90;;;;;;5027385;28;20196;-63
2022/11/26 03:04:24;;;;;;;38.53;16.23;;;4.80;99.90;;;;;;5027028;28;20281;-63
2022/11/26 03:06:52;;;;;;;40.77;16.03;;;4.90;99.90;;;;;;5029367;28;20676;-64
2022/11/26 03:09:22;;;;;;;33.40;13.93;;;4.90;99.90;;;;;;5028285;28;20658;-63
2022/11/26 03:11:50;;;;;;;34.00;13.80;;;4.90;99.90;;;;;;5027623;28;20202;-64
2022/11/26 03:14:17;;;;;;;39.10;14.73;;;4.90;99.90;;;;;;5026618;28;20202;-63
2022/11/26 03:16:44;;;;;;;40.37;15.57;;;4.90;99.90;;;;;;5026568;28;20201;-63
2022/11/26 03:19:12;;;;;;;35.73;13.90;;;5.00;99.90;;;;;;5025886;28;20330;-63
2022/11/26 03:21:39;;;;;;;45.20;16.87;;;5.00;99.90;;;;;;5028612;28;20218;-63
2022/11/26 03:24:06;;;;;;;38.13;14.80;;;5.00;99.90;;;;;;5026411;28;20195;-63
2022/11/26 03:26:33;;;;;;;36.57;14.90;;;4.90;99.90;;;;;;5026820;28;20214;-63
2022/11/26 03:29:00;;;;;;;38.17;14.93;;;4.90;99.90;;;;;;5026500;28;20273;-63
2022/11/26 03:31:27;;;;;;;40.00;15.93;;;5.00;99.90;;;;;;5026936;28;20232;-63
2022/11/26 03:33:54;;;;;;;43.47;16.33;;;4.90;99.90;;;;;;5028702;28;20281;-63
2022/11/26 03:36:22;;;;;;;46.83;17.03;;;4.90;99.90;;;;;;5031276;28;20207;-64
2022/11/26 03:38:49;;;;;;;73.53;23.70;;;5.00;99.90;;;;;;5031328;28;20773;-64
2022/11/26 03:41:16;;;;;;;57.07;20.07;;;5.00;99.90;;;;;;5031061;28;20298;-63
2022/11/26 03:43:43;;;;;;;64.23;23.10;;;5.00;99.90;;;;;;5030124;28;20190;-63
2022/11/26 03:46:10;;;;;;;71.33;25.43;;;5.00;99.90;;;;;;5030868;28;20641;-63
2022/11/26 03:48:37;;;;;;;70.77;24.23;;;5.00;99.90;;;;;;5029310;28;20279;-63
2022/11/26 03:51:04;;;;;;;55.03;19.70;;;4.90;99.90;;;;;;5030694;28;20218;-64
2022/11/26 03:53:32;;;;;;;49.67;17.83;;;4.90;99.90;;;;;;5030488;28;20199;-63
2022/11/26 03:55:59;;;;;;;44.23;17.20;;;5.00;99.90;;;;;;5028811;28;20239;-62
2022/11/26 03:58:26;;;;;;;56.93;18.97;;;5.00;99.90;;;;;;5030270;28;20442;-63
2022/11/26 04:00:53;;;;;;;74.00;23.03;;;5.00;99.90;;;;;;5029801;28;20621;-63
2022/11/26 04:03:20;;;;;;;81.33;26.40;;;5.00;99.90;;;;;;5030012;28;20194;-63
2022/11/26 04:05:47;;;;;;;60.67;22.13;;;5.00;99.90;;;;;;5030226;28;20293;-63
2022/11/26 04:08:14;;;;;;;81.07;26.97;;;5.00;99.90;;;;;;5029366;28;20191;-63
2022/11/26 04:10:43;;;;;;;63.10;21.90;;;4.90;99.90;;;;;;5031228;28;20187;-63
2022/11/26 04:13:10;;;;;;;50.47;18.40;;;4.90;99.90;;;;;;5028779;28;20244;-64
2022/11/26 04:15:37;;;;;;;52.63;19.13;;;4.90;99.90;;;;;;5029741;28;20202;-63
2022/11/26 04:18:04;;;;;;;51.77;18.10;;;4.90;99.90;;;;;;5029085;28;20195;-63
2022/11/26 04:20:34;;;;;;;57.80;19.07;;;4.90;99.90;;;;;;5031383;28;20571;-63
2022/11/26 04:23:01;;;;;;;37.77;14.33;;;5.00;99.90;;;;;;5027816;28;20635;-63
2022/11/26 04:25:28;;;;;;;40.13;15.20;;;4.90;99.90;;;;;;5030341;28;20277;-63
2022/11/26 04:27:56;;;;;;;33.07;13.23;;;4.90;99.90;;;;;;5030409;28;20271;-63
2022/11/26 04:30:24;;;;;;;31.10;11.97;;;5.00;99.90;;;;;;5028824;28;20191;-63
2022/11/26 04:32:51;;;;;;;38.40;12.93;;;5.00;99.90;;;;;;5029482;28;20279;-63
2022/11/26 04:35:18;;;;;;;39.23;13.83;;;4.90;99.90;;;;;;5028678;28;20666;-63
2022/11/26 04:37:45;;;;;;;37.43;13.03;;;5.00;99.90;;;;;;5029647;28;20187;-62
2022/11/26 04:40:12;;;;;;;31.80;11.83;;;5.00;99.90;;;;;;5030406;28;20570;-63
2022/11/26 04:42:39;;;;;;;41.50;13.93;;;5.00;99.90;;;;;;5029019;28;20208;-64
2022/11/26 04:45:09;;;;;;;56.00;18.77;;;5.00;99.90;;;;;;5028602;28;20203;-64
2022/11/26 04:47:36;;;;;;;59.30;21.03;;;5.10;99.90;;;;;;5027941;28;20266;-64
2022/11/26 04:50:04;;;;;;;43.43;16.40;;;5.10;99.90;;;;;;5027968;28;20243;-63
2022/11/26 04:52:31;;;;;;;58.37;19.40;;;5.10;99.90;;;;;;5028130;28;20294;-63
2022/11/26 04:54:58;;;;;;;48.77;16.10;;;5.10;99.90;;;;;;5027421;28;20227;-62
2022/11/26 04:57:25;;;;;;;51.13;16.97;;;5.10;99.90;;;;;;5030617;28;20278;-62
2022/11/26 04:59:51;;;;;;;48.80;16.83;;;5.10;99.90;;;;;;5027132;28;20296;-62
2022/11/26 05:02:20;;;;;;;53.57;18.40;;;5.10;99.90;;;;;;5028763;28;20537;-62
2022/11/26 05:04:47;;;;;;;46.73;16.37;;;5.10;99.90;;;;;;5028679;28;20299;-62
2022/11/26 05:07:14;;;;;;;45.37;16.27;;;5.20;99.90;;;;;;5029499;28;20274;-62
2022/11/26 05:09:41;;;;;;;46.67;17.43;;;5.20;99.90;;;;;;5027619;28;20205;-62
2022/11/26 05:12:08;;;;;;;50.87;17.87;;;5.20;99.90;;;;;;5027755;28;20214;-63
2022/11/26 05:14:35;;;;;;;42.23;15.00;;;5.20;99.90;;;;;;5028310;28;20209;-63
2022/11/26 05:17:02;;;;;;;46.33;15.23;;;5.20;99.90;;;;;;5026100;28;20274;-62
2022/11/26 05:19:30;;;;;;;28.27;11.53;;;5.20;99.90;;;;;;5026933;28;20204;-63
2022/11/26 05:21:57;;;;;;;45.97;15.27;;;5.20;99.90;;;;;;5028415;28;20194;-63
2022/11/26 05:24:24;;;;;;;56.10;19.40;;;5.30;99.90;;;;;;5029090;28;20283;-63
2022/11/26 05:26:51;;;;;;;54.10;18.37;;;5.30;99.90;;;;;;5028115;28;20708;-63
2022/11/26 05:29:18;;;;;;;55.33;19.83;;;5.30;99.90;;;;;;5028518;28;20305;-63
2022/11/26 05:31:45;;;;;;;44.60;17.37;;;5.20;99.90;;;;;;5020035;28;20239;-63
2022/11/26 05:34:12;;;;;;;52.83;18.43;;;5.20;99.90;;;;;;5012538;28;20196;-63
2022/11/26 05:36:40;;;;;;;63.53;20.83;;;5.70;99.90;;;;;;5009941;28;20663;-62
2022/11/26 05:39:07;;;;;;;59.90;20.93;;;5.20;99.90;;;;;;5010332;28;20254;-63
2022/11/26 05:41:34;;;;;;;46.83;17.20;;;5.20;99.90;;;;;;5015584;28;20310;-63
2022/11/26 05:44:01;;;;;;;49.23;18.33;;;5.20;99.90;;;;;;5008146;28;20721;-63
2022/11/26 05:46:28;;;;;;;60.70;20.70;;;5.20;99.90;;;;;;5007867;28;20287;-63
2022/11/26 05:48:55;;;;;;;58.80;21.23;;;5.30;99.90;;;;;;5011018;28;20218;-63
2022/11/26 05:51:22;;;;;;;70.67;24.73;;;5.30;99.90;;;;;;5009570;28;20621;-63
2022/11/26 05:53:51;;;;;;;91.57;33.07;;;5.30;99.90;;;;;;5015370;28;20198;-63
2022/11/26 05:56:18;;;;;;;90.63;31.20;;;5.20;99.90;;;;;;5008972;28;20650;-63
2022/11/26 05:58:44;;;;;;;82.60;28.87;;;5.30;99.90;;;;;;5016829;28;20265;-62
2022/11/26 06:01:11;;;;;;;77.47;27.30;;;5.30;99.90;;;;;;5010935;28;20731;-62
2022/11/26 06:03:38;;;;;;;74.47;25.73;;;5.20;99.90;;;;;;5010421;28;20637;-63
2022/11/26 06:06:06;;;;;;;78.83;26.33;;;5.20;99.90;;;;;;5009214;28;20239;-63
2022/11/26 06:08:33;;;;;;;59.23;21.30;;;5.10;99.90;;;;;;5010370;28;20204;-63
2022/11/26 06:11:01;;;;;;;58.73;22.80;;;5.10;99.90;;;;;;5012061;28;20202;-63
2022/11/26 06:13:28;;;;;;;46.13;17.83;;;5.20;99.90;;;;;;5011841;28;20214;-63
2022/11/26 06:15:55;;;;;;;38.17;15.07;;;5.20;99.90;;;;;;5012348;28;20607;-62
2022/11/26 06:18:23;;;;;;;47.47;17.53;;;5.20;99.90;;;;;;5010769;28;20204;-63
2022/11/26 06:20:50;;;;;;;52.37;19.67;;;5.20;99.90;;;;;;5009529;28;20204;-62
2022/11/26 06:23:16;;;;;;;48.20;17.73;;;5.10;99.90;;;;;;5009432;28;20211;-63
2022/11/26 06:25:43;;;;;;;47.27;17.30;;;5.10;99.90;;;;;;5015567;28;20257;-63
2022/11/26 06:28:12;;;;;;;44.60;17.33;;;5.20;99.90;;;;;;5009957;28;20319;-63
2022/11/26 06:30:39;;;;;;;45.90;17.30;;;5.20;99.90;;;;;;5010235;28;20674;-63
2022/11/26 06:33:06;;;;;;;53.97;19.07;;;5.20;99.90;;;;;;5027399;28;20203;-63
2022/11/26 06:35:35;;;;;;;44.33;17.27;;;5.30;99.90;;;;;;5028412;28;20702;-62
2022/11/26 06:38:02;;;;;;;47.60;17.40;;;5.20;99.90;;;;;;5030122;28;20279;-63
2022/11/26 06:40:29;;;;;;;36.33;13.67;;;5.20;99.90;;;;;;5026559;28;20218;-63
2022/11/26 06:42:56;;;;;;;36.43;13.37;;;5.30;99.90;;;;;;5027986;28;20709;-63
2022/11/26 06:45:25;;;;;;;43.77;15.23;;;5.30;99.90;;;;;;5027594;28;20206;-62
2022/11/26 06:47:52;;;;;;;66.27;22.87;;;5.30;99.90;;;;;;5021243;28;20606;-62
2022/11/26 06:50:22;;;;;;;65.93;24.13;;;5.30;99.90;;;;;;5026466;28;20227;-63
2022/11/26 06:52:51;;;;;;;55.17;20.60;;;5.30;99.90;;;;;;5027932;28;20281;-63
2022/11/26 06:55:19;;;;;;;40.97;16.07;;;5.30;99.90;;;;;;5027615;28;20215;-64
2022/11/26 06:57:49;;;;;;;37.93;15.70;;;5.20;99.90;;;;;;5026407;28;20317;-64
2022/11/26 07:00:17;;;;;;;38.60;15.53;;;5.30;99.90;;;;;;5025573;28;20593;-63
2022/11/26 07:02:45;;;;;;;63.93;20.47;;;5.20;99.90;;;;;;5026837;28;20350;-63
2022/11/26 07:05:12;;;;;;;64.60;23.23;;;5.30;99.90;;;;;;5025946;28;20282;-62
2022/11/26 07:07:40;;;;;;;62.93;22.17;;;5.30;99.90;;;;;;5010870;28;20657;-63
2022/11/26 07:10:08;;;;;;;76.50;26.80;;;5.30;99.90;;;;;;5032233;28;20279;-63
2022/11/26 07:12:35;;;;;;;70.13;24.37;;;5.30;99.90;;;;;;5033430;28;20231;-63
2022/11/26 07:15:02;;;;;;;54.93;21.20;;;5.30;99.90;;;;;;5031512;28;20288;-63
2022/11/26 07:17:29;;;;;;;48.07;17.97;;;5.30;99.90;;;;;;5030034;28;20735;-63
2022/11/26 07:19:57;;;;;;;43.47;17.43;;;5.30;99.90;;;;;;5027658;28;20199;-63
2022/11/26 07:22:24;;;;;;;56.97;20.97;;;5.30;99.90;;;;;;5031675;28;20201;-63
2022/11/26 07:24:51;;;;;;;51.67;19.63;;;5.30;99.90;;;;;;5031599;28;20278;-63
2022/11/26 07:27:18;;;;;;;45.13;17.80;;;5.30;99.90;;;;;;5030993;28;20664;-63
2022/11/26 07:29:45;;;;;;;43.80;16.53;;;5.40;99.90;;;;;;5027050;28;20224;-63
2022/11/26 07:32:12;;;;;;;49.93;18.73;;;5.40;99.90;;;;;;5030351;28;20316;-63
2022/11/26 07:34:39;;;;;;;42.53;16.73;;;5.40;99.90;;;;;;5031580;28;20205;-64
2022/11/26 07:37:07;;;;;;;40.47;16.27;;;5.40;99.90;;;;;;5028885;28;20311;-64
2022/11/26 07:39:34;;;;;;;46.43;17.87;;;5.50;99.90;;;;;;5030611;28;20270;-64
2022/11/26 07:42:01;;;;;;;54.13;20.87;;;5.50;99.90;;;;;;5030397;28;20311;-63
2022/11/26 07:44:28;;;;;;;60.90;24.10;;;5.50;99.90;;;;;;5031531;28;20255;-63
2022/11/26 07:46:55;;;;;;;52.27;19.23;;;5.40;99.90;;;;;;5028442;28;20192;-63
2022/11/26 07:49:22;;;;;;;67.10;22.97;;;5.40;99.90;;;;;;5030809;28;20645;-63
2022/11/26 07:51:49;;;;;;;43.93;18.37;;;5.40;99.90;;;;;;5031128;28;20244;-62
2022/11/26 07:54:18;;;;;;;39.37;16.23;;;5.40;99.90;;;;;;5032673;28;20296;-62
2022/11/26 07:56:45;;;;;;;33.90;14.83;;;5.50;99.90;;;;;;5031655;28;20274;-62
2022/11/26 07:59:12;;;;;;;35.17;14.87;;;5.50;99.90;;;;;;5031843;28;20294;-63
2022/11/26 08:01:39;;;;;;;40.10;15.33;;;5.50;99.90;;;;;;5028471;28;20212;-63
2022/11/26 08:04:07;;;;;;;46.27;18.20;;;5.50;99.90;;;;;;5029065;28;20207;-62
2022/11/26 08:06:34;;;;;;;40.23;16.93;;;5.60;99.90;;;;;;5030295;28;20204;-63
2022/11/26 08:09:03;;;;;;;37.17;16.27;;;5.60;99.90;;;;;;5030830;28;20292;-63
2022/11/26 08:11:33;;;;;;;34.50;15.00;;;5.60;99.90;;;;;;5026874;28;20192;-62
2022/11/26 08:14:01;;;;;;;46.63;17.63;;;5.60;99.90;;;;;;5031917;28;20210;-62
2022/11/26 08:16:28;;;;;;;44.27;18.13;;;5.60;99.90;;;;;;5031707;28;20282;-62
2022/11/26 08:18:56;;;;;;;50.50;19.67;;;5.60;99.90;;;;;;5029611;28;20220;-62
2022/11/26 08:21:24;;;;;;;34.53;14.80;;;5.50;99.90;;;;;;5029726;28;20289;-62
2022/11/26 08:23:51;;;;;;;42.70;18.47;;;5.60;99.90;;;;;;5031027;28;20638;-63
2022/11/26 08:26:19;;;;;;;37.17;15.67;;;5.60;99.90;;;;;;5029926;28;20231;-63
2022/11/26 08:28:47;;;;;;;46.37;18.93;;;5.60;99.90;;;;;;5030075;28;20234;-63
2022/11/26 08:31:16;;;;;;;37.57;15.63;;;5.60;99.90;;;;;;5027953;28;20332;-63
2022/11/26 08:33:43;;;;;;;40.90;16.27;;;5.50;99.90;;;;;;5028555;28;20308;-63
2022/11/26 08:36:11;;;;;;;34.33;14.70;;;5.50;99.90;;;;;;5030117;28;20332;-63
2022/11/26 08:38:38;;;;;;;54.97;21.17;;;5.50;99.90;;;;;;5031168;28;20283;-63
2022/11/26 08:41:07;;;;;;;55.83;22.23;;;5.60;99.90;;;;;;5030835;28;20306;-63
2022/11/26 08:43:35;;;;;;;53.57;20.73;;;5.50;99.90;;;;;;5028225;28;20191;-63
2022/11/26 08:46:04;;;;;;;63.80;24.70;;;5.60;99.90;;;;;;5026002;28;20285;-63
2022/11/26 08:48:31;;;;;;;67.87;25.37;;;5.50;99.90;;;;;;5028966;28;20190;-62
2022/11/26 08:51:00;;;;;;;58.93;23.97;;;5.50;99.90;;;;;;5030439;28;20237;-62
2022/11/26 08:53:28;;;;;;;55.63;21.37;;;5.50;99.90;;;;;;5031756;28;20227;-63
2022/11/26 08:55:59;;;;;;;68.77;26.17;;;5.50;99.90;;;;;;5029474;28;20281;-63
2022/11/26 08:58:26;;;;;;;61.50;24.43;;;5.50;99.90;;;;;;5027843;28;20199;-63
2022/11/26 09:00:54;;;;;;;44.10;18.33;;;5.50;99.90;;;;;;5037369;28;20219;-62
2022/11/26 09:03:22;;;;;;;46.40;19.03;;;5.40;99.90;;;;;;5014538;28;20295;-63
2022/11/26 09:05:52;;;;;;;53.83;20.60;;;5.50;99.90;;;;;;5027637;28;20203;-63
2022/11/26 09:08:19;;;;;;;44.53;17.23;;;5.40;99.90;;;;;;5030430;28;20199;-63
2022/11/26 09:10:54;;;;;;;45.17;17.83;;;5.50;99.90;;;;;;5040921;28;20223;-63
2022/11/26 09:13:21;;;;;;;63.47;25.30;;;5.50;99.90;;;;;;5031047;28;20678;-63
2022/11/26 09:15:49;;;;;;;53.67;20.60;;;5.60;99.90;;;;;;5029326;28;20276;-63
2022/11/26 09:18:16;;;;;;;43.67;18.77;;;5.60;99.90;;;;;;5027210;28;20201;-63
2022/11/26 09:20:45;;;;;;;34.27;15.90;;;5.60;99.90;;;;;;5011488;28;20657;-63
2022/11/26 09:23:12;;;;;;;37.40;16.27;;;5.70;99.90;;;;;;5027599;28;20252;-63
2022/11/26 09:25:39;;;;;;;35.37;15.07;;;5.60;99.90;;;;;;5027453;28;20631;-63
2022/11/26 09:28:06;;;;;;;41.10;17.30;;;5.60;99.90;;;;;;5029781;28;20196;-63
2022/11/26 09:30:33;;;;;;;37.73;16.53;;;5.60;99.90;;;;;;5028790;28;20602;-63
2022/11/26 09:33:01;;;;;;;43.43;18.67;;;5.70;99.90;;;;;;5027971;28;20257;-64
2022/11/26 09:35:28;;;;;;;42.63;17.87;;;5.70;99.90;;;;;;5029984;28;20716;-62
2022/11/26 09:37:56;;;;;;;32.80;15.00;;;5.70;99.90;;;;;;5031581;28;20524;-63
2022/11/26 09:40:32;;;;;;;45.77;19.37;;;5.70;99.90;;;;;;5031513;28;20553;-64
2022/11/26 09:43:06;;;;;;;50.07;20.93;;;5.70;99.90;;;;;;5028667;28;21027;-63
2022/11/26 09:45:42;;;;;;;41.27;18.30;;;5.80;99.90;;;;;;5016425;28;20235;-63
2022/11/26 09:48:16;;;;;;;53.43;22.87;;;5.80;99.90;;;;;;5028599;28;20544;-63
2022/11/26 09:50:44;;;;;;;42.57;19.07;;;5.80;99.90;;;;;;5029459;28;20188;-63
2022/11/26 09:53:18;;;;;;;46.63;19.33;;;5.90;99.90;;;;;;5029747;28;20239;-62
2022/11/26 09:55:47;;;;;;;35.33;15.57;;;5.90;99.90;;;;;;5027647;28;20657;-62
2022/11/26 09:58:20;;;;;;;34.93;15.60;;;5.90;99.90;;;;;;5029738;28;20504;-63
2022/11/26 10:00:49;;;;;;;45.67;18.03;;;5.90;99.90;;;;;;5027027;28;20528;-63
2022/11/26 10:03:18;;;;;;;38.63;17.07;;;5.90;99.90;;;;;;5029519;28;20203;-63
2022/11/26 10:05:57;;;;;;;43.10;17.40;;;6.00;99.90;;;;;;5023128;28;20251;-63
2022/11/26 10:09:00;;;;;;;45.30;19.23;;;6.00;99.90;;;;;;5028184;28;20577;-63
2022/11/26 10:11:37;;;;;;;34.80;16.47;;;6.00;99.90;;;;;;5009042;28;20580;-63
2022/11/26 10:14:17;;;;;;;34.97;15.17;;;6.10;99.90;;;;;;5028478;28;20624;-63
2022/11/26 10:16:52;;;;;;;31.33;14.87;;;6.10;99.90;;;;;;5017269;28;20607;-62
2022/11/26 10:19:27;;;;;;;28.43;13.33;;;6.10;99.90;;;;;;5027948;28;20208;-63
2022/11/26 10:21:58;;;;;;;31.17;14.67;;;6.10;99.90;;;;;;5028085;28;20206;-63
2022/11/26 10:24:32;;;;;;;28.07;13.27;;;6.20;99.90;;;;;;5028818;28;20722;-64
2022/11/26 10:27:09;;;;;;;26.30;12.33;;;6.20;99.90;;;;;;5029246;28;20582;-63
2022/11/26 10:29:40;;;;;;;26.10;12.73;;;6.20;99.90;;;;;;5028997;28;20678;-63
2022/11/26 10:32:14;;;;;;;28.80;14.33;;;6.20;99.90;;;;;;5031647;28;20265;-63
2022/11/26 10:34:49;;;;;;;31.97;14.73;;;6.30;99.90;;;;;;5009958;28;20197;-63
2022/11/26 10:37:17;;;;;;;33.50;14.67;;;6.30;99.90;;;;;;5007229;28;20221;-63
2022/11/26 10:39:47;;;;;;;32.60;14.90;;;6.30;99.90;;;;;;5023815;28;20197;-63
2022/11/26 10:42:18;;;;;;;34.20;15.47;;;6.30;99.90;;;;;;5008937;28;20310;-63
2022/11/26 10:44:47;;;;;;;30.87;15.03;;;6.20;99.90;;;;;;5008923;28;20195;-62
2022/11/26 10:47:23;;;;;;;38.70;18.60;;;6.30;99.90;;;;;;5006284;28;20706;-63
2022/11/26 10:49:52;;;;;;;47.03;21.10;;;6.30;99.90;;;;;;5009068;28;20664;-63
2022/11/26 10:52:24;;;;;;;66.37;28.90;;;6.40;99.90;;;;;;5008140;28;20350;-63
2022/11/26 10:55:25;;;;;;;70.43;31.27;;;6.40;99.90;;;;;;5010567;28;20280;-63
2022/11/26 10:57:57;;;;;;;66.00;29.00;;;6.40;99.90;;;;;;5007860;28;20695;-62
2022/11/26 11:00:36;;;;;;;56.47;25.63;;;6.40;99.90;;;;;;5006925;28;20673;-64
2022/11/26 11:03:06;;;;;;;50.93;23.70;;;6.40;99.90;;;;;;5007252;28;20299;-63
2022/11/26 11:05:34;;;;;;;57.30;26.03;;;6.40;99.90;;;;;;5009659;28;20208;-63
2022/11/26 11:08:01;;;;;;;55.37;24.20;;;6.40;99.90;;;;;;5006431;28;20270;-63
2022/11/26 11:10:28;;;;;;;42.50;20.50;;;6.50;99.90;;;;;;5009146;28;20197;-62
2022/11/26 11:13:10;;;;;;;42.03;20.33;;;6.50;99.90;;;;;;5006367;28;20191;-63
2022/11/26 11:15:41;;;;;;;47.03;21.43;;;6.50;99.90;;;;;;5007406;28;20672;-63
2022/11/26 11:18:18;;;;;;;38.03;18.70;;;6.50;99.90;;;;;;5008266;28;20198;-63
2022/11/26 11:20:52;;;;;;;38.70;18.33;;;6.50;99.90;;;;;;5008869;28;20222;-63
2022/11/26 11:23:22;;;;;;;36.90;17.23;;;6.50;99.90;;;;;;5008295;28;20312;-63
2022/11/26 11:25:59;;;;;;;45.10;20.97;;;6.60;99.90;;;;;;5008340;28;20210;-62
2022/11/26 11:28:29;;;;;;;42.97;19.07;;;6.60;99.90;;;;;;5008528;28;20194;-63
2022/11/26 11:31:07;;;;;;;34.30;17.57;;;6.70;99.90;;;;;;5011471;28;20204;-63
2022/11/26 11:33:34;;;;;;;30.57;14.80;;;6.70;99.90;;;;;;5027401;28;20193;-63
2022/11/26 11:36:04;;;;;;;58.43;24.73;;;6.80;99.90;;;;;;5027649;28;20273;-63
2022/11/26 11:38:44;;;;;;;55.47;26.53;;;6.80;99.90;;;;;;5028267;28;20189;-62
2022/11/26 11:41:20;;;;;;;57.80;24.87;;;6.80;99.90;;;;;;5027283;28;20232;-63
2022/11/26 11:43:49;;;;;;;51.23;23.77;;;6.80;99.90;;;;;;5027549;28;20202;-63
2022/11/26 11:47:00;;;;;;;55.93;24.10;;;6.80;99.90;;;;;;5024711;28;20280;-62
2022/11/26 11:49:39;;;;;;;43.33;20.73;;;6.80;99.90;;;;;;4967650;28;20201;-63
2022/11/26 11:52:17;;;;;;;44.00;20.93;;;6.80;99.90;;;;;;4966901;28;20277;-62
2022/11/26 11:54:55;;;;;;;58.67;24.87;;;6.80;99.90;;;;;;5004417;28;20210;-62
2022/11/26 11:57:48;;;;;;;48.87;21.47;;;6.80;99.90;;;;;;5030930;28;20297;-63
2022/11/26 12:00:19;;;;;;;71.00;30.27;;;6.80;99.90;;;;;;5032138;28;20568;-64
2022/11/26 12:03:14;;;;;;;73.47;30.70;;;6.80;99.90;;;;;;5028489;28;20264;-64
2022/11/26 12:06:06;;;;;;;67.77;29.00;;;6.80;99.90;;;;;;5033092;28;20208;-63
2022/11/26 12:08:45;;;;;;;60.13;27.40;;;6.80;99.90;;;;;;5040640;28;20254;-62
2022/11/26 12:11:26;;;;;;;49.70;23.33;;;6.80;99.90;;;;;;5054894;28;20194;-62
2022/11/26 12:14:00;;;;;;;42.57;19.80;;;6.80;99.90;;;;;;5046630;28;20190;-61
2022/11/26 12:16:34;;;;;;;57.67;26.87;;;6.80;99.90;;;;;;5032843;28;20193;-63
2022/11/26 12:19:05;;;;;;;56.73;26.80;;;6.80;99.90;;;;;;5031978;28;20195;-63
2022/11/26 12:21:38;;;;;;;48.20;23.03;;;6.80;99.90;;;;;;5031671;28;20197;-62
2022/11/26 12:24:12;;;;;;;39.73;19.67;;;6.80;99.90;;;;;;5031283;28;20286;-63
2022/11/26 12:26:44;;;;;;;37.03;18.90;;;6.90;99.90;;;;;;5035272;28;20767;-62
2022/11/26 12:29:15;;;;;;;29.77;15.10;;;6.90;99.90;;;;;;5030975;28;20197;-63
2022/11/26 12:31:48;;;;;;;28.73;14.93;;;6.90;99.90;;;;;;5029442;28;20693;-62
2022/11/26 12:34:23;;;;;;;25.33;13.63;;;7.00;99.90;;;;;;5031871;28;20218;-62
2022/11/26 12:36:55;;;;;;;23.70;12.77;;;7.00;99.90;;;;;;5027442;28;20198;-62
2022/11/26 12:39:33;;;;;;;30.03;15.27;;;7.00;99.90;;;;;;5030945;28;20639;-63
2022/11/26 12:42:08;;;;;;;29.30;14.93;;;7.10;99.90;;;;;;5031286;28;20550;-63
2022/11/26 12:44:39;;;;;;;23.83;13.07;;;7.10;99.90;;;;;;5030210;28;20624;-63
2022/11/26 12:47:15;;;;;;;22.60;12.47;;;7.20;99.90;;;;;;5038509;28;20202;-63
2022/11/26 12:49:51;;;;;;;32.60;16.50;;;7.20;99.90;;;;;;5027663;28;20648;-62
2022/11/26 12:52:29;;;;;;;24.47;13.43;;;7.30;99.90;;;;;;5029249;28;20198;-63